Ana Sayfa
METAR-TAF:

METAR-TAF

Havaalanları :

Makassar, Güney Sulawesi, Endonezya

Enlem: 05-04S, Boylam: 119-33E, yükseklik: 14 m

Güncel hava durumu gözlemi

Rapor saat 00:30 UTC de 34 dakika önce yapıldı.
Rüzgar doğu/güneydoğudan 5 kt
Sıcaklık 27°C
Nem 66%
Basınç 1010 hPa
Görüş mesafesi 10 km veya daha fazla
1900 ft yükseklikte az bulutlu

METAR: WAAA 140030Z 11005KT 9999 FEW019 27/20 Q1010 NOSIG

Saat: 08:04 (01:04 UTC)

Tahmin

Rapor saat 23:00 UTC de 2 saat ve 4 dakika önce yapıldı.
Ayın 14'si saat 00 UTC'den ayın 15'si saat 06 UTC'ye kadar geçerli Tahmin
Rüzgar doğu/güneydoğudan 4 kt
Görüş mesafesi 10 km veya daha fazla
1900 ft yükseklikte az bulutlu
Dönüşüyor
ayın 14'si saat 02 UTC'den ayın 14'si saat 04 UTC'ye kadar
Rüzgar batı/kuzeybatıdan 12 kt

TAF: WAAA 132300Z 1400/1506 11004KT 9999 FEW019 BECMG 1402/1404 30012KT

4.000'den fazla havaalanı için hava durumu gözlemleri ve tahminleri (METAR ve TAF raporları).

Kullanılabilir istasyonlar harita üzerinde sarı ve kırmızı noktalarla gösterilir.

İstasyonun adını görmek için fareyi noktanın üzerinde gezdirin.

Sonrasında hava gözlem ve tahminlerini görmek için tıklayın.

Haritayı değiştirmek için: yaklaştırmak için siyah artı işaretli yeşil düğmeye ve uzaklaştırmak için de eksi işaretli düğmeye hızla tıklayın; bitişik haritalar için yeşil okları kullanın.


METAR-TAF: